sensor_id;sensor_type;location;lat;lon;timestamp;temperature;humidity
21772;DHT22;11047;47.904;8.110;2023-11-22T00:00:28;4.90;99.90
21772;DHT22;11047;47.904;8.110;2023-11-22T00:02:58;4.90;99.90
21772;DHT22;11047;47.904;8.110;2023-11-22T00:05:25;4.80;99.90
21772;DHT22;11047;47.904;8.110;2023-11-22T00:07:52;5.00;99.90
21772;DHT22;11047;47.904;8.110;2023-11-22T00:10:18;4.80;99.90
21772;DHT22;11047;47.904;8.110;2023-11-22T00:12:45;4.80;99.90
21772;DHT22;11047;47.904;8.110;2023-11-22T00:15:12;4.90;99.90
21772;DHT22;11047;47.904;8.110;2023-11-22T00:17:43;4.90;99.90
21772;DHT22;11047;47.904;8.110;2023-11-22T00:20:12;4.90;99.90
21772;DHT22;11047;47.904;8.110;2023-11-22T00:22:39;4.90;99.90
21772;DHT22;11047;47.904;8.110;2023-11-22T00:25:06;4.80;99.90
21772;DHT22;11047;47.904;8.110;2023-11-22T00:27:34;4.90;99.90
21772;DHT22;11047;47.904;8.110;2023-11-22T00:30:02;4.90;99.90
21772;DHT22;11047;47.904;8.110;2023-11-22T00:32:30;4.80;99.90
21772;DHT22;11047;47.904;8.110;2023-11-22T00:34:56;4.80;99.90
21772;DHT22;11047;47.904;8.110;2023-11-22T00:37:25;4.80;99.90
21772;DHT22;11047;47.904;8.110;2023-11-22T00:39:51;4.70;99.90
21772;DHT22;11047;47.904;8.110;2023-11-22T00:42:18;4.80;99.90
21772;DHT22;11047;47.904;8.110;2023-11-22T00:44:46;4.60;99.90
21772;DHT22;11047;47.904;8.110;2023-11-22T00:47:13;4.50;99.90
21772;DHT22;11047;47.904;8.110;2023-11-22T00:49:42;4.50;99.90
21772;DHT22;11047;47.904;8.110;2023-11-22T00:52:09;4.50;99.90
21772;DHT22;11047;47.904;8.110;2023-11-22T00:54:38;4.40;99.90
21772;DHT22;11047;47.904;8.110;2023-11-22T00:57:05;4.40;99.90
21772;DHT22;11047;47.904;8.110;2023-11-22T00:59:32;4.50;99.90
21772;DHT22;11047;47.904;8.110;2023-11-22T01:01:59;4.50;99.90
21772;DHT22;11047;47.904;8.110;2023-11-22T01:04:27;4.50;99.90
21772;DHT22;11047;47.904;8.110;2023-11-22T01:06:54;4.40;99.90
21772;DHT22;11047;47.904;8.110;2023-11-22T01:09:21;4.60;99.90
21772;DHT22;11047;47.904;8.110;2023-11-22T01:11:49;4.60;99.90
21772;DHT22;11047;47.904;8.110;2023-11-22T01:14:16;4.60;99.90
21772;DHT22;11047;47.904;8.110;2023-11-22T01:16:43;4.50;99.90
21772;DHT22;11047;47.904;8.110;2023-11-22T01:19:10;4.60;99.90
21772;DHT22;11047;47.904;8.110;2023-11-22T01:21:37;4.60;99.90
21772;DHT22;11047;47.904;8.110;2023-11-22T01:24:04;4.60;99.90
21772;DHT22;11047;47.904;8.110;2023-11-22T01:26:31;4.60;99.90
21772;DHT22;11047;47.904;8.110;2023-11-22T01:29:00;5.10;99.90
21772;DHT22;11047;47.904;8.110;2023-11-22T01:31:28;5.00;99.90
21772;DHT22;11047;47.904;8.110;2023-11-22T01:33:54;4.70;99.90
21772;DHT22;11047;47.904;8.110;2023-11-22T01:36:21;4.60;99.90
21772;DHT22;11047;47.904;8.110;2023-11-22T01:38:48;4.70;99.90
21772;DHT22;11047;47.904;8.110;2023-11-22T01:41:16;4.70;99.90
21772;DHT22;11047;47.904;8.110;2023-11-22T01:43:43;4.60;99.90
21772;DHT22;11047;47.904;8.110;2023-11-22T01:46:17;4.70;99.90
21772;DHT22;11047;47.904;8.110;2023-11-22T01:48:48;4.80;99.90
21772;DHT22;11047;47.904;8.110;2023-11-22T01:51:15;5.20;99.90
21772;DHT22;11047;47.904;8.110;2023-11-22T01:53:42;4.70;99.90
21772;DHT22;11047;47.904;8.110;2023-11-22T01:56:09;4.70;99.90
21772;DHT22;11047;47.904;8.110;2023-11-22T01:58:36;4.80;99.90
21772;DHT22;11047;47.904;8.110;2023-11-22T02:01:04;4.80;99.90
21772;DHT22;11047;47.904;8.110;2023-11-22T02:03:32;4.80;99.90
21772;DHT22;11047;47.904;8.110;2023-11-22T02:05:59;4.70;99.90
21772;DHT22;11047;47.904;8.110;2023-11-22T02:08:26;4.70;99.90
21772;DHT22;11047;47.904;8.110;2023-11-22T02:11:03;4.60;99.90
21772;DHT22;11047;47.904;8.110;2023-11-22T02:13:30;4.50;99.90
21772;DHT22;11047;47.904;8.110;2023-11-22T02:15:56;4.50;99.90
21772;DHT22;11047;47.904;8.110;2023-11-22T02:18:25;4.50;99.90
21772;DHT22;11047;47.904;8.110;2023-11-22T02:20:54;4.60;99.90
21772;DHT22;11047;47.904;8.110;2023-11-22T02:23:22;4.50;99.90
21772;DHT22;11047;47.904;8.110;2023-11-22T02:25:49;4.50;99.90
21772;DHT22;11047;47.904;8.110;2023-11-22T02:28:16;4.60;99.90
21772;DHT22;11047;47.904;8.110;2023-11-22T02:30:43;4.60;99.90
21772;DHT22;11047;47.904;8.110;2023-11-22T02:33:10;4.60;99.90
21772;DHT22;11047;47.904;8.110;2023-11-22T02:35:37;4.70;99.90
21772;DHT22;11047;47.904;8.110;2023-11-22T02:38:04;4.70;99.90
21772;DHT22;11047;47.904;8.110;2023-11-22T02:40:33;4.70;99.90
21772;DHT22;11047;47.904;8.110;2023-11-22T02:43:00;4.60;99.90
21772;DHT22;11047;47.904;8.110;2023-11-22T02:45:33;4.60;99.90
21772;DHT22;11047;47.904;8.110;2023-11-22T02:48:00;4.60;99.90
21772;DHT22;11047;47.904;8.110;2023-11-22T02:50:29;4.60;99.90
21772;DHT22;11047;47.904;8.110;2023-11-22T02:52:57;4.60;99.90
21772;DHT22;11047;47.904;8.110;2023-11-22T02:55:24;5.20;99.90
21772;DHT22;11047;47.904;8.110;2023-11-22T02:57:53;4.60;99.90
21772;DHT22;11047;47.904;8.110;2023-11-22T03:00:19;4.60;99.90
21772;DHT22;11047;47.904;8.110;2023-11-22T03:02:46;4.60;99.90
21772;DHT22;11047;47.904;8.110;2023-11-22T03:05:19;4.60;99.90
21772;DHT22;11047;47.904;8.110;2023-11-22T03:07:46;4.60;99.90
21772;DHT22;11047;47.904;8.110;2023-11-22T03:10:13;4.70;99.90
21772;DHT22;11047;47.904;8.110;2023-11-22T03:12:54;4.70;99.90
21772;DHT22;11047;47.904;8.110;2023-11-22T03:15:21;4.70;99.90
21772;DHT22;11047;47.904;8.110;2023-11-22T03:17:48;4.70;99.90
21772;DHT22;11047;47.904;8.110;2023-11-22T03:20:15;4.70;99.90
21772;DHT22;11047;47.904;8.110;2023-11-22T03:22:42;4.70;99.90
21772;DHT22;11047;47.904;8.110;2023-11-22T03:25:10;4.80;99.90
21772;DHT22;11047;47.904;8.110;2023-11-22T03:27:38;4.80;99.90
21772;DHT22;11047;47.904;8.110;2023-11-22T03:30:08;4.80;99.90
21772;DHT22;11047;47.904;8.110;2023-11-22T03:32:37;4.70;99.90
21772;DHT22;11047;47.904;8.110;2023-11-22T03:35:05;4.70;99.90
21772;DHT22;11047;47.904;8.110;2023-11-22T03:37:32;4.70;99.90
21772;DHT22;11047;47.904;8.110;2023-11-22T03:39:59;4.80;99.90
21772;DHT22;11047;47.904;8.110;2023-11-22T03:42:27;4.80;99.90
21772;DHT22;11047;47.904;8.110;2023-11-22T03:44:54;4.70;99.90
21772;DHT22;11047;47.904;8.110;2023-11-22T03:47:22;4.70;99.90
21772;DHT22;11047;47.904;8.110;2023-11-22T03:49:49;4.80;99.90
21772;DHT22;11047;47.904;8.110;2023-11-22T03:52:16;4.80;99.90
21772;DHT22;11047;47.904;8.110;2023-11-22T03:54:43;4.70;99.90
21772;DHT22;11047;47.904;8.110;2023-11-22T03:57:10;4.80;99.90
21772;DHT22;11047;47.904;8.110;2023-11-22T03:59:37;4.80;99.90
21772;DHT22;11047;47.904;8.110;2023-11-22T04:02:04;4.90;99.90
21772;DHT22;11047;47.904;8.110;2023-11-22T04:04:34;4.80;99.90
21772;DHT22;11047;47.904;8.110;2023-11-22T04:07:02;4.80;99.90
21772;DHT22;11047;47.904;8.110;2023-11-22T04:09:29;4.70;99.90
21772;DHT22;11047;47.904;8.110;2023-11-22T04:11:56;4.70;99.90
21772;DHT22;11047;47.904;8.110;2023-11-22T04:14:23;4.80;99.90
21772;DHT22;11047;47.904;8.110;2023-11-22T04:16:52;4.80;99.90
21772;DHT22;11047;47.904;8.110;2023-11-22T04:19:19;4.70;99.90
21772;DHT22;11047;47.904;8.110;2023-11-22T04:21:47;4.70;99.90
21772;DHT22;11047;47.904;8.110;2023-11-22T04:24:14;4.70;99.90
21772;DHT22;11047;47.904;8.110;2023-11-22T04:26:43;4.80;99.90
21772;DHT22;11047;47.904;8.110;2023-11-22T04:29:10;4.80;99.90
21772;DHT22;11047;47.904;8.110;2023-11-22T04:31:36;4.90;99.90
21772;DHT22;11047;47.904;8.110;2023-11-22T04:34:03;4.80;99.90
21772;DHT22;11047;47.904;8.110;2023-11-22T04:36:30;4.80;99.90
21772;DHT22;11047;47.904;8.110;2023-11-22T04:38:58;4.80;99.90
21772;DHT22;11047;47.904;8.110;2023-11-22T04:41:25;5.00;99.90
21772;DHT22;11047;47.904;8.110;2023-11-22T04:43:52;4.90;99.90
21772;DHT22;11047;47.904;8.110;2023-11-22T04:46:20;4.80;99.90
21772;DHT22;11047;47.904;8.110;2023-11-22T04:48:46;4.90;99.90
21772;DHT22;11047;47.904;8.110;2023-11-22T04:51:16;4.80;99.90
21772;DHT22;11047;47.904;8.110;2023-11-22T04:53:44;4.80;99.90
21772;DHT22;11047;47.904;8.110;2023-11-22T04:56:12;4.80;99.90
21772;DHT22;11047;47.904;8.110;2023-11-22T04:58:39;4.80;99.90
21772;DHT22;11047;47.904;8.110;2023-11-22T05:01:06;4.80;99.90
21772;DHT22;11047;47.904;8.110;2023-11-22T05:03:36;4.80;99.90
21772;DHT22;11047;47.904;8.110;2023-11-22T05:06:03;4.80;99.90
21772;DHT22;11047;47.904;8.110;2023-11-22T05:08:30;4.80;99.90
21772;DHT22;11047;47.904;8.110;2023-11-22T05:10:57;4.80;99.90
21772;DHT22;11047;47.904;8.110;2023-11-22T05:13:25;4.80;99.90
21772;DHT22;11047;47.904;8.110;2023-11-22T05:15:52;4.80;99.90
21772;DHT22;11047;47.904;8.110;2023-11-22T05:18:19;4.80;99.90
21772;DHT22;11047;47.904;8.110;2023-11-22T05:20:47;4.80;99.90
21772;DHT22;11047;47.904;8.110;2023-11-22T05:23:14;4.70;99.90
21772;DHT22;11047;47.904;8.110;2023-11-22T05:25:41;4.80;99.90
21772;DHT22;11047;47.904;8.110;2023-11-22T05:28:08;4.70;99.90
21772;DHT22;11047;47.904;8.110;2023-11-22T05:30:36;4.70;99.90
21772;DHT22;11047;47.904;8.110;2023-11-22T05:33:04;4.70;99.90
21772;DHT22;11047;47.904;8.110;2023-11-22T05:35:31;4.60;99.90
21772;DHT22;11047;47.904;8.110;2023-11-22T05:37:58;4.60;99.90
21772;DHT22;11047;47.904;8.110;2023-11-22T05:40:25;4.50;99.90
21772;DHT22;11047;47.904;8.110;2023-11-22T05:42:52;4.50;99.90
21772;DHT22;11047;47.904;8.110;2023-11-22T05:45:18;4.40;99.90
21772;DHT22;11047;47.904;8.110;2023-11-22T05:47:47;4.40;99.90
21772;DHT22;11047;47.904;8.110;2023-11-22T05:50:14;4.40;99.90
21772;DHT22;11047;47.904;8.110;2023-11-22T05:52:41;4.30;99.90
21772;DHT22;11047;47.904;8.110;2023-11-22T05:55:08;4.30;99.90
21772;DHT22;11047;47.904;8.110;2023-11-22T05:57:35;4.20;99.90
21772;DHT22;11047;47.904;8.110;2023-11-22T06:00:03;4.20;99.90
21772;DHT22;11047;47.904;8.110;2023-11-22T06:02:30;4.20;99.90
21772;DHT22;11047;47.904;8.110;2023-11-22T06:04:58;4.20;99.90
21772;DHT22;11047;47.904;8.110;2023-11-22T06:07:25;4.10;99.90
21772;DHT22;11047;47.904;8.110;2023-11-22T06:09:52;4.20;99.90
21772;DHT22;11047;47.904;8.110;2023-11-22T06:12:19;4.10;99.90
21772;DHT22;11047;47.904;8.110;2023-11-22T06:14:47;4.30;99.90
21772;DHT22;11047;47.904;8.110;2023-11-22T06:17:14;4.00;99.90
21772;DHT22;11047;47.904;8.110;2023-11-22T06:19:41;4.00;99.90
21772;DHT22;11047;47.904;8.110;2023-11-22T06:22:09;3.90;99.90
21772;DHT22;11047;47.904;8.110;2023-11-22T06:24:36;3.80;99.90
21772;DHT22;11047;47.904;8.110;2023-11-22T06:27:03;3.80;99.90
21772;DHT22;11047;47.904;8.110;2023-11-22T06:29:31;3.70;99.90
21772;DHT22;11047;47.904;8.110;2023-11-22T06:31:58;3.70;99.90
21772;DHT22;11047;47.904;8.110;2023-11-22T06:34:24;3.60;99.90
21772;DHT22;11047;47.904;8.110;2023-11-22T06:36:51;3.70;99.90
21772;DHT22;11047;47.904;8.110;2023-11-22T06:39:19;3.70;99.90
21772;DHT22;11047;47.904;8.110;2023-11-22T06:41:48;3.60;99.90
21772;DHT22;11047;47.904;8.110;2023-11-22T06:44:14;3.60;99.90
21772;DHT22;11047;47.904;8.110;2023-11-22T06:46:41;3.50;99.90
21772;DHT22;11047;47.904;8.110;2023-11-22T06:49:08;3.50;99.90
21772;DHT22;11047;47.904;8.110;2023-11-22T06:51:35;3.50;99.90
21772;DHT22;11047;47.904;8.110;2023-11-22T06:54:02;3.50;99.90
21772;DHT22;11047;47.904;8.110;2023-11-22T06:56:31;3.60;99.90
21772;DHT22;11047;47.904;8.110;2023-11-22T06:58:58;3.60;99.90
21772;DHT22;11047;47.904;8.110;2023-11-22T07:01:25;3.50;99.90
21772;DHT22;11047;47.904;8.110;2023-11-22T07:03:52;3.60;99.90
21772;DHT22;11047;47.904;8.110;2023-11-22T07:06:19;3.60;99.90
21772;DHT22;11047;47.904;8.110;2023-11-22T07:08:48;3.60;99.90
21772;DHT22;11047;47.904;8.110;2023-11-22T07:11:21;3.60;99.90
21772;DHT22;11047;47.904;8.110;2023-11-22T07:13:51;3.50;99.90
21772;DHT22;11047;47.904;8.110;2023-11-22T07:16:18;3.50;99.90
21772;DHT22;11047;47.904;8.110;2023-11-22T07:18:46;3.40;99.90
21772;DHT22;11047;47.904;8.110;2023-11-22T07:21:13;3.50;99.90
21772;DHT22;11047;47.904;8.110;2023-11-22T07:23:39;3.50;99.90
21772;DHT22;11047;47.904;8.110;2023-11-22T07:26:06;3.40;99.90
21772;DHT22;11047;47.904;8.110;2023-11-22T07:28:33;3.40;99.90
21772;DHT22;11047;47.904;8.110;2023-11-22T07:31:03;3.30;99.90
21772;DHT22;11047;47.904;8.110;2023-11-22T07:33:31;3.30;99.90
21772;DHT22;11047;47.904;8.110;2023-11-22T07:35:58;3.20;99.90
21772;DHT22;11047;47.904;8.110;2023-11-22T07:38:25;3.20;99.90
21772;DHT22;11047;47.904;8.110;2023-11-22T07:40:52;3.30;99.90
21772;DHT22;11047;47.904;8.110;2023-11-22T07:43:19;3.30;99.90
21772;DHT22;11047;47.904;8.110;2023-11-22T07:45:46;3.20;99.90
21772;DHT22;11047;47.904;8.110;2023-11-22T07:48:15;3.30;99.90
21772;DHT22;11047;47.904;8.110;2023-11-22T07:50:42;3.30;99.90
21772;DHT22;11047;47.904;8.110;2023-11-22T07:53:10;3.20;99.90
21772;DHT22;11047;47.904;8.110;2023-11-22T07:55:37;3.20;99.90
21772;DHT22;11047;47.904;8.110;2023-11-22T07:58:04;3.10;99.90
21772;DHT22;11047;47.904;8.110;2023-11-22T08:00:32;3.10;99.90
21772;DHT22;11047;47.904;8.110;2023-11-22T08:03:00;3.20;99.90
21772;DHT22;11047;47.904;8.110;2023-11-22T08:05:29;3.20;99.90
21772;DHT22;11047;47.904;8.110;2023-11-22T08:08:00;3.20;99.90
21772;DHT22;11047;47.904;8.110;2023-11-22T08:10:27;3.20;99.90
21772;DHT22;11047;47.904;8.110;2023-11-22T08:12:54;3.20;99.90
21772;DHT22;11047;47.904;8.110;2023-11-22T08:15:21;3.20;99.90
21772;DHT22;11047;47.904;8.110;2023-11-22T08:17:48;3.20;99.90
21772;DHT22;11047;47.904;8.110;2023-11-22T08:20:15;3.20;99.90
21772;DHT22;11047;47.904;8.110;2023-11-22T08:22:44;3.20;99.90
21772;DHT22;11047;47.904;8.110;2023-11-22T08:25:15;3.50;99.90
21772;DHT22;11047;47.904;8.110;2023-11-22T08:27:42;3.20;99.90
21772;DHT22;11047;47.904;8.110;2023-11-22T08:30:10;3.20;99.90
21772;DHT22;11047;47.904;8.110;2023-11-22T08:32:40;3.20;99.90
21772;DHT22;11047;47.904;8.110;2023-11-22T08:35:08;3.20;99.90
21772;DHT22;11047;47.904;8.110;2023-11-22T08:37:35;3.20;99.90
21772;DHT22;11047;47.904;8.110;2023-11-22T08:40:06;3.20;99.90
21772;DHT22;11047;47.904;8.110;2023-11-22T08:42:33;3.30;99.90
21772;DHT22;11047;47.904;8.110;2023-11-22T08:45:01;3.30;99.90
21772;DHT22;11047;47.904;8.110;2023-11-22T08:47:28;3.40;99.90
21772;DHT22;11047;47.904;8.110;2023-11-22T08:49:56;3.50;99.90
21772;DHT22;11047;47.904;8.110;2023-11-22T08:52:23;3.50;99.90
21772;DHT22;11047;47.904;8.110;2023-11-22T08:54:50;3.40;99.90
21772;DHT22;11047;47.904;8.110;2023-11-22T08:57:19;3.40;99.90
21772;DHT22;11047;47.904;8.110;2023-11-22T08:59:46;3.20;99.90
21772;DHT22;11047;47.904;8.110;2023-11-22T09:02:13;3.20;99.90
21772;DHT22;11047;47.904;8.110;2023-11-22T09:04:40;3.10;99.90
21772;DHT22;11047;47.904;8.110;2023-11-22T09:07:08;3.10;99.90
21772;DHT22;11047;47.904;8.110;2023-11-22T09:09:36;3.10;99.90
21772;DHT22;11047;47.904;8.110;2023-11-22T09:12:03;3.00;99.90
21772;DHT22;11047;47.904;8.110;2023-11-22T09:14:39;3.00;99.90
21772;DHT22;11047;47.904;8.110;2023-11-22T09:17:07;2.90;99.90
21772;DHT22;11047;47.904;8.110;2023-11-22T09:19:35;3.00;99.90
21772;DHT22;11047;47.904;8.110;2023-11-22T09:22:03;3.00;99.90
21772;DHT22;11047;47.904;8.110;2023-11-22T09:24:32;2.90;99.90
21772;DHT22;11047;47.904;8.110;2023-11-22T09:26:59;2.90;99.90
21772;DHT22;11047;47.904;8.110;2023-11-22T09:29:30;2.90;99.90
21772;DHT22;11047;47.904;8.110;2023-11-22T09:31:59;2.80;99.90
21772;DHT22;11047;47.904;8.110;2023-11-22T09:34:27;2.80;99.90
21772;DHT22;11047;47.904;8.110;2023-11-22T09:36:55;2.80;99.90
21772;DHT22;11047;47.904;8.110;2023-11-22T09:39:21;2.80;99.90
21772;DHT22;11047;47.904;8.110;2023-11-22T09:41:50;2.80;99.90
21772;DHT22;11047;47.904;8.110;2023-11-22T09:44:18;2.80;99.90
21772;DHT22;11047;47.904;8.110;2023-11-22T09:46:48;2.80;99.90
21772;DHT22;11047;47.904;8.110;2023-11-22T09:49:22;2.90;99.90
21772;DHT22;11047;47.904;8.110;2023-11-22T09:51:51;3.30;99.90
21772;DHT22;11047;47.904;8.110;2023-11-22T09:54:23;3.00;99.90
21772;DHT22;11047;47.904;8.110;2023-11-22T09:56:56;2.90;99.90
21772;DHT22;11047;47.904;8.110;2023-11-22T09:59:23;2.80;99.90
21772;DHT22;11047;47.904;8.110;2023-11-22T10:01:50;2.90;99.90
21772;DHT22;11047;47.904;8.110;2023-11-22T10:04:21;2.80;99.90
21772;DHT22;11047;47.904;8.110;2023-11-22T10:06:50;2.90;99.90
21772;DHT22;11047;47.904;8.110;2023-11-22T10:09:18;2.90;99.90
21772;DHT22;11047;47.904;8.110;2023-11-22T10:11:45;2.90;99.90
21772;DHT22;11047;47.904;8.110;2023-11-22T10:14:22;3.00;99.90
21772;DHT22;11047;47.904;8.110;2023-11-22T10:16:58;3.00;99.90
21772;DHT22;11047;47.904;8.110;2023-11-22T10:19:26;3.00;99.90
21772;DHT22;11047;47.904;8.110;2023-11-22T10:22:04;3.00;99.90
21772;DHT22;11047;47.904;8.110;2023-11-22T10:24:31;3.00;99.90
21772;DHT22;11047;47.904;8.110;2023-11-22T10:26:59;2.90;99.90
21772;DHT22;11047;47.904;8.110;2023-11-22T10:29:26;2.90;99.90
21772;DHT22;11047;47.904;8.110;2023-11-22T10:31:54;2.90;99.90
21772;DHT22;11047;47.904;8.110;2023-11-22T10:34:21;2.90;99.90
21772;DHT22;11047;47.904;8.110;2023-11-22T10:37:05;2.90;99.90
21772;DHT22;11047;47.904;8.110;2023-11-22T10:39:31;2.90;99.90
21772;DHT22;11047;47.904;8.110;2023-11-22T10:41:59;2.90;99.90
21772;DHT22;11047;47.904;8.110;2023-11-22T10:44:26;2.80;99.90
21772;DHT22;11047;47.904;8.110;2023-11-22T10:46:53;2.80;99.90
21772;DHT22;11047;47.904;8.110;2023-11-22T10:49:21;2.80;99.90
21772;DHT22;11047;47.904;8.110;2023-11-22T10:51:52;2.80;99.90
21772;DHT22;11047;47.904;8.110;2023-11-22T10:54:21;2.70;99.90
21772;DHT22;11047;47.904;8.110;2023-11-22T10:56:54;2.70;99.90
21772;DHT22;11047;47.904;8.110;2023-11-22T10:59:22;2.60;99.90
21772;DHT22;11047;47.904;8.110;2023-11-22T11:01:56;2.50;99.90
21772;DHT22;11047;47.904;8.110;2023-11-22T11:04:29;2.50;99.90
21772;DHT22;11047;47.904;8.110;2023-11-22T11:07:02;2.50;99.90
21772;DHT22;11047;47.904;8.110;2023-11-22T11:09:33;2.60;99.90
21772;DHT22;11047;47.904;8.110;2023-11-22T11:12:02;2.70;99.90
21772;DHT22;11047;47.904;8.110;2023-11-22T11:14:29;2.60;99.90
21772;DHT22;11047;47.904;8.110;2023-11-22T11:16:56;2.60;99.90
21772;DHT22;11047;47.904;8.110;2023-11-22T11:19:24;2.70;99.90
21772;DHT22;11047;47.904;8.110;2023-11-22T11:21:54;2.80;99.90
21772;DHT22;11047;47.904;8.110;2023-11-22T11:24:23;2.80;99.90
21772;DHT22;11047;47.904;8.110;2023-11-22T11:26:51;2.70;99.90
21772;DHT22;11047;47.904;8.110;2023-11-22T11:29:31;2.70;99.90
21772;DHT22;11047;47.904;8.110;2023-11-22T11:31:58;2.60;99.90
21772;DHT22;11047;47.904;8.110;2023-11-22T11:34:27;2.60;99.90
21772;DHT22;11047;47.904;8.110;2023-11-22T11:36:55;2.70;99.90
21772;DHT22;11047;47.904;8.110;2023-11-22T11:39:26;2.70;99.90
21772;DHT22;11047;47.904;8.110;2023-11-22T11:42:09;2.80;99.90
21772;DHT22;11047;47.904;8.110;2023-11-22T11:44:36;2.70;99.90
21772;DHT22;11047;47.904;8.110;2023-11-22T11:47:13;2.60;99.90
21772;DHT22;11047;47.904;8.110;2023-11-22T11:49:40;2.60;99.90
21772;DHT22;11047;47.904;8.110;2023-11-22T11:52:07;2.50;99.90
21772;DHT22;11047;47.904;8.110;2023-11-22T11:54:34;2.60;99.90
21772;DHT22;11047;47.904;8.110;2023-11-22T11:57:02;2.60;99.90
21772;DHT22;11047;47.904;8.110;2023-11-22T11:59:30;2.50;99.90
21772;DHT22;11047;47.904;8.110;2023-11-22T12:01:59;2.60;99.90
21772;DHT22;11047;47.904;8.110;2023-11-22T12:04:26;2.70;99.90
21772;DHT22;11047;47.904;8.110;2023-11-22T12:06:53;2.70;99.90
21772;DHT22;11047;47.904;8.110;2023-11-22T12:09:23;2.70;99.90
21772;DHT22;11047;47.904;8.110;2023-11-22T12:11:54;2.70;99.90
21772;DHT22;11047;47.904;8.110;2023-11-22T12:14:23;2.70;99.90
21772;DHT22;11047;47.904;8.110;2023-11-22T12:16:52;2.80;99.90
21772;DHT22;11047;47.904;8.110;2023-11-22T12:19:23;2.80;99.90
21772;DHT22;11047;47.904;8.110;2023-11-22T12:21:52;2.80;99.90
21772;DHT22;11047;47.904;8.110;2023-11-22T12:24:19;2.70;99.90
21772;DHT22;11047;47.904;8.110;2023-11-22T12:26:47;2.90;99.90
21772;DHT22;11047;47.904;8.110;2023-11-22T12:29:15;2.80;99.90
21772;DHT22;11047;47.904;8.110;2023-11-22T12:31:45;2.70;99.90
21772;DHT22;11047;47.904;8.110;2023-11-22T12:34:14;2.70;99.90
21772;DHT22;11047;47.904;8.110;2023-11-22T12:36:41;2.80;99.90
21772;DHT22;11047;47.904;8.110;2023-11-22T12:39:09;2.80;99.90
21772;DHT22;11047;47.904;8.110;2023-11-22T12:41:46;2.70;99.90
21772;DHT22;11047;47.904;8.110;2023-11-22T12:44:13;2.70;99.90
21772;DHT22;11047;47.904;8.110;2023-11-22T12:46:45;2.50;99.90
21772;DHT22;11047;47.904;8.110;2023-11-22T12:49:13;2.60;99.90
21772;DHT22;11047;47.904;8.110;2023-11-22T12:51:46;2.50;99.90
21772;DHT22;11047;47.904;8.110;2023-11-22T12:54:13;2.50;99.90
21772;DHT22;11047;47.904;8.110;2023-11-22T12:56:40;2.30;99.90
21772;DHT22;11047;47.904;8.110;2023-11-22T12:59:07;2.60;99.90
21772;DHT22;11047;47.904;8.110;2023-11-22T13:01:35;2.50;99.90
21772;DHT22;11047;47.904;8.110;2023-11-22T13:04:03;2.50;99.90
21772;DHT22;11047;47.904;8.110;2023-11-22T13:06:31;2.50;99.90
21772;DHT22;11047;47.904;8.110;2023-11-22T13:08:58;2.40;99.90
21772;DHT22;11047;47.904;8.110;2023-11-22T13:11:25;2.40;99.90
21772;DHT22;11047;47.904;8.110;2023-11-22T13:13:52;2.50;99.90
21772;DHT22;11047;47.904;8.110;2023-11-22T13:16:19;2.50;99.90
21772;DHT22;11047;47.904;8.110;2023-11-22T13:18:46;2.40;99.90
21772;DHT22;11047;47.904;8.110;2023-11-22T13:21:14;2.40;99.90
21772;DHT22;11047;47.904;8.110;2023-11-22T13:23:42;2.30;99.90
21772;DHT22;11047;47.904;8.110;2023-11-22T13:26:09;2.30;99.90
21772;DHT22;11047;47.904;8.110;2023-11-22T13:28:38;2.20;99.90
21772;DHT22;11047;47.904;8.110;2023-11-22T13:31:06;2.30;99.90
21772;DHT22;11047;47.904;8.110;2023-11-22T13:33:33;2.20;99.90
21772;DHT22;11047;47.904;8.110;2023-11-22T13:36:00;2.20;99.90
21772;DHT22;11047;47.904;8.110;2023-11-22T13:38:28;2.30;99.90
21772;DHT22;11047;47.904;8.110;2023-11-22T13:40:56;2.30;99.90
21772;DHT22;11047;47.904;8.110;2023-11-22T13:43:24;2.40;99.90
21772;DHT22;11047;47.904;8.110;2023-11-22T13:45:51;2.40;99.90
21772;DHT22;11047;47.904;8.110;2023-11-22T13:48:18;2.30;99.90
21772;DHT22;11047;47.904;8.110;2023-11-22T13:50:45;2.30;99.90
21772;DHT22;11047;47.904;8.110;2023-11-22T13:53:11;2.30;99.90
21772;DHT22;11047;47.904;8.110;2023-11-22T13:55:38;2.40;99.90
21772;DHT22;11047;47.904;8.110;2023-11-22T13:58:06;2.30;99.90
21772;DHT22;11047;47.904;8.110;2023-11-22T14:00:34;2.20;99.90
21772;DHT22;11047;47.904;8.110;2023-11-22T14:03:02;2.20;99.90
21772;DHT22;11047;47.904;8.110;2023-11-22T14:05:34;2.20;99.90
21772;DHT22;11047;47.904;8.110;2023-11-22T14:08:02;2.10;99.90
21772;DHT22;11047;47.904;8.110;2023-11-22T14:10:29;2.10;99.90
21772;DHT22;11047;47.904;8.110;2023-11-22T14:12:56;2.00;99.90
21772;DHT22;11047;47.904;8.110;2023-11-22T14:15:27;2.00;99.90
21772;DHT22;11047;47.904;8.110;2023-11-22T14:17:54;1.90;99.90
21772;DHT22;11047;47.904;8.110;2023-11-22T14:20:21;2.00;99.90
21772;DHT22;11047;47.904;8.110;2023-11-22T14:22:49;1.90;99.90
21772;DHT22;11047;47.904;8.110;2023-11-22T14:25:16;1.90;99.90
21772;DHT22;11047;47.904;8.110;2023-11-22T14:27:45;1.90;99.90
21772;DHT22;11047;47.904;8.110;2023-11-22T14:30:14;1.90;99.90
21772;DHT22;11047;47.904;8.110;2023-11-22T14:32:44;2.00;99.90
21772;DHT22;11047;47.904;8.110;2023-11-22T14:35:11;2.00;99.90
21772;DHT22;11047;47.904;8.110;2023-11-22T14:37:38;2.00;99.90
21772;DHT22;11047;47.904;8.110;2023-11-22T14:40:06;2.00;99.90
21772;DHT22;11047;47.904;8.110;2023-11-22T14:42:39;1.90;99.90
21772;DHT22;11047;47.904;8.110;2023-11-22T14:45:07;2.00;99.90
21772;DHT22;11047;47.904;8.110;2023-11-22T14:47:34;2.00;99.90
21772;DHT22;11047;47.904;8.110;2023-11-22T14:50:04;1.90;99.90
21772;DHT22;11047;47.904;8.110;2023-11-22T14:52:32;1.90;99.90
21772;DHT22;11047;47.904;8.110;2023-11-22T14:55:00;2.00;99.90
21772;DHT22;11047;47.904;8.110;2023-11-22T14:57:27;1.80;99.90
21772;DHT22;11047;47.904;8.110;2023-11-22T14:59:54;2.00;99.90
21772;DHT22;11047;47.904;8.110;2023-11-22T15:02:22;1.90;99.90
21772;DHT22;11047;47.904;8.110;2023-11-22T15:04:49;1.90;99.90
21772;DHT22;11047;47.904;8.110;2023-11-22T15:07:17;1.90;99.90
21772;DHT22;11047;47.904;8.110;2023-11-22T15:09:44;1.90;99.90
21772;DHT22;11047;47.904;8.110;2023-11-22T15:12:11;1.90;99.90
21772;DHT22;11047;47.904;8.110;2023-11-22T15:14:39;1.90;99.90
21772;DHT22;11047;47.904;8.110;2023-11-22T15:17:06;1.80;99.90
21772;DHT22;11047;47.904;8.110;2023-11-22T15:19:33;1.80;99.90
21772;DHT22;11047;47.904;8.110;2023-11-22T15:22:03;1.80;99.90
21772;DHT22;11047;47.904;8.110;2023-11-22T15:24:32;1.90;99.90
21772;DHT22;11047;47.904;8.110;2023-11-22T15:26:59;1.80;99.90
21772;DHT22;11047;47.904;8.110;2023-11-22T15:29:26;1.90;99.90
21772;DHT22;11047;47.904;8.110;2023-11-22T15:31:53;1.80;99.90
21772;DHT22;11047;47.904;8.110;2023-11-22T15:34:20;1.80;99.90
21772;DHT22;11047;47.904;8.110;2023-11-22T15:36:47;1.80;99.90
21772;DHT22;11047;47.904;8.110;2023-11-22T15:39:14;1.70;99.90
21772;DHT22;11047;47.904;8.110;2023-11-22T15:41:44;1.70;99.90
21772;DHT22;11047;47.904;8.110;2023-11-22T15:44:11;1.60;99.90
21772;DHT22;11047;47.904;8.110;2023-11-22T15:46:39;1.80;99.90
21772;DHT22;11047;47.904;8.110;2023-11-22T15:49:07;1.70;99.90